sensor_id;sensor_type;location;lat;lon;timestamp;pressure;altitude;pressure_sealevel;temperature
77385;BMP280;66444;49.680;18.538;2024-03-23T00:56:20;96676.36941611728;;;11.117658617487177
77385;BMP280;66444;49.680;18.538;2024-03-23T01:01:23;96667.57670081878;;;11.076966578839347
77385;BMP280;66444;49.680;18.538;2024-03-23T01:06:32;96658.06103375573;;;11.066793510969728
77385;BMP280;66444;49.680;18.538;2024-03-23T01:11:36;96648.94988685596;;;11.076966578839347
77385;BMP280;66444;49.680;18.538;2024-03-23T01:16:40;96655.80447035936;;;11.087139623425902
77385;BMP280;66444;49.680;18.538;2024-03-23T01:21:45;96643.94795045364;;;11.02610100666061
77385;BMP280;66444;49.680;18.538;2024-03-23T01:26:53;96648.14130240722;;;11.036274167662487
77385;BMP280;66444;49.680;18.538;2024-03-23T01:31:58;96642.09550255933;;;11.066793510969728
77385;BMP280;66444;49.680;18.538;2024-03-23T01:37:02;96651.20654665667;;;11.056620419817046
77385;BMP280;66444;49.680;18.538;2024-03-23T01:42:06;96645.0760887478;;;11.01592782237567
77385;BMP280;66444;49.680;18.538;2024-03-23T01:47:15;96644.67151309457;;;10.995581383956596
77385;BMP280;66444;49.680;18.538;2024-03-23T01:52:19;96643.2239210663;;;11.056620419817046
77385;BMP280;66444;49.680;18.538;2024-03-23T01:57:23;96635.72650499405;;;11.148177402000874
77385;BMP280;66444;49.680;18.538;2024-03-23T02:02:28;96633.83132271802;;;11.15326384571381
77385;BMP280;66444;49.680;18.538;2024-03-23T02:07:32;96631.53309590308;;;11.138004497112707
77385;BMP280;66444;49.680;18.538;2024-03-23T02:12:37;96620.08251723115;;;11.09731264472939
77385;BMP280;66444;49.680;18.538;2024-03-23T02:17:41;96630.7266425357;;;11.09731264472939
77385;BMP280;66444;49.680;18.538;2024-03-23T02:22:45;96613.95448206214;;;11.056620419817046
77385;BMP280;66444;49.680;18.538;2024-03-23T02:27:49;96608.63279764693;;;11.056620419817046
77385;BMP280;66444;49.680;18.538;2024-03-23T02:32:53;96616.93709927569;;;11.005754614807666
77385;BMP280;66444;49.680;18.538;2024-03-23T02:37:57;96610.00077981874;;;10.92436811607331
77385;BMP280;66444;49.680;18.538;2024-03-23T02:43:06;96598.71572220583;;;11.02610100666061
77385;BMP280;66444;49.680;18.538;2024-03-23T02:48:10;96587.45999817328;;;11.163436715677381
77385;BMP280;66444;49.680;18.538;2024-03-23T02:53:15;96576.9220789096;;;11.270250444579869
77385;BMP280;66444;49.680;18.538;2024-03-23T02:58:19;96562.67645696382;;;11.494042314775289
77385;BMP280;66444;49.680;18.538;2024-03-23T03:03:23;96566.64849771;;;11.697479690611363
77385;BMP280;66444;49.680;18.538;2024-03-23T03:08:27;96549.26589890345;;;11.865308514563367
77385;BMP280;66444;49.680;18.538;2024-03-23T03:13:31;96531.8408604037;;;11.997532820422203
77385;BMP280;66444;49.680;18.538;2024-03-23T03:18:35;96532.68638343735;;;12.1450091348961
77385;BMP280;66444;49.680;18.538;2024-03-23T03:23:41;96523.24878631353;;;12.312821055343374
77385;BMP280;66444;49.680;18.538;2024-03-23T03:28:44;96522.93395765078;;;12.47045678216964
77385;BMP280;66444;49.680;18.538;2024-03-23T03:33:49;96523.00667914019;;;12.684018843667582
77385;BMP280;66444;49.680;18.538;2024-03-23T03:38:53;96526.87039464424;;;12.887401737133041
77385;BMP280;66444;49.680;18.538;2024-03-23T03:43:58;96519.27296786063;;;13.05010134638287
77385;BMP280;66444;49.680;18.538;2024-03-23T03:49:02;96502.50462431244;;;13.187374505447224
77385;BMP280;66444;49.680;18.538;2024-03-23T03:54:06;96488.77404441583;;;13.273803576780484
77385;BMP280;66444;49.680;18.538;2024-03-23T03:59:10;96487.24655227413;;;13.334811320202425
77385;BMP280;66444;49.680;18.538;2024-03-23T04:04:14;96461.30007762717;;;13.3754826834891
77385;BMP280;66444;49.680;18.538;2024-03-23T04:09:18;96467.02121795187;;;13.39581822543405
77385;BMP280;66444;49.680;18.538;2024-03-23T04:14:23;96457.4748120707;;;13.456824292475357
77385;BMP280;66444;49.680;18.538;2024-03-23T04:19:27;96455.18230703993;;;13.47715946189128
77385;BMP280;66444;49.680;18.538;2024-03-23T04:24:31;96470.83033464126;;;13.456824292475357
77385;BMP280;66444;49.680;18.538;2024-03-23T04:29:36;96476.17256090893;;;13.456824292475357
77385;BMP280;66444;49.680;18.538;2024-03-23T04:34:40;96462.43337869168;;;13.472075678268448
77385;BMP280;66444;49.680;18.538;2024-03-23T04:39:45;96446.02226143375;;;13.487327011674642
77385;BMP280;66444;49.680;18.538;2024-03-23T04:44:50;96424.65961933578;;;13.451740485569463
77385;BMP280;66444;49.680;18.538;2024-03-23T04:49:54;96407.87133576433;;;13.446656672842801
77385;BMP280;66444;49.680;18.538;2024-03-23T04:54:58;96388.01785544083;;;13.492410777835175
77385;BMP280;66444;49.680;18.538;2024-03-23T05:00:01;96387.23600333577;;;13.558499208232387
77385;BMP280;66444;49.680;18.538;2024-03-23T05:05:08;96383.79184577103;;;13.589001228939741
77385;BMP280;66444;49.680;18.538;2024-03-23T05:10:11;96390.28310531023;;;13.578833911987022
77385;BMP280;66444;49.680;18.538;2024-03-23T05:15:14;96399.82151058351;;;13.589001228939741
77385;BMP280;66444;49.680;18.538;2024-03-23T05:20:18;96409.3500657025;;;13.634753867099061
77385;BMP280;66444;49.680;18.538;2024-03-23T05:25:21;96406.2808625161;;;13.685589578747749
77385;BMP280;66444;49.680;18.538;2024-03-23T05:30:24;96407.03100972595;;;13.726257728971541
77385;BMP280;66444;49.680;18.538;2024-03-23T05:35:27;96407.4178136584;;;13.711007216293364
77385;BMP280;66444;49.680;18.538;2024-03-23T05:40:30;96406.29196109303;;;13.650004641711712
77385;BMP280;66444;49.680;18.538;2024-03-23T05:45:35;96399.43538622576;;;13.604252160713077
77385;BMP280;66444;49.680;18.538;2024-03-23T05:50:41;96392.55740558318;;;13.62967026391998
77385;BMP280;66444;49.680;18.538;2024-03-23T05:55:44;96394.06926254275;;;13.67542248298414
77385;BMP280;66444;49.680;18.538;2024-03-23T06:00:48;96400.92483554626;;;13.721174230566248
77385;BMP280;66444;49.680;18.538;2024-03-23T06:05:52;96405.49529823259;;;13.751675133686513
77385;BMP280;66444;49.680;18.538;2024-03-23T06:10:55;96399.37598455684;;;13.782175827259199
77385;BMP280;66444;49.680;18.538;2024-03-23T06:16:04;96407.36675247317;;;13.853343297354877
77385;BMP280;66444;49.680;18.538;2024-03-23T06:21:19;96399.31875769826;;;13.924509626580402
77385;BMP280;66444;49.680;18.538;2024-03-23T06:26:22;96400.82611391586;;;13.970258807204663
77385;BMP280;66444;49.680;18.538;2024-03-23T06:31:25;96386.30927128036;;;13.980425227759406
77385;BMP280;66444;49.680;18.538;2024-03-23T06:36:33;96388.62648793425;;;13.924509626580402
77385;BMP280;66444;49.680;18.538;2024-03-23T06:41:37;96366.44531662638;;;13.990591625031083
77385;BMP280;66444;49.680;18.538;2024-03-23T06:46:40;96370.21334409372;;;14.087171237869189
77385;BMP280;66444;49.680;18.538;2024-03-23T06:51:43;96364.78218075594;;;14.22949525830336
77385;BMP280;66444;49.680;18.538;2024-03-23T06:56:47;96362.4311804358;;;14.32098686164245
77385;BMP280;66444;49.680;18.538;2024-03-23T07:01:50;96362.33278094689;;;14.463303384929896
77385;BMP280;66444;49.680;18.538;2024-03-23T07:06:58;96358.45020275809;;;14.544625063613058
77385;BMP280;66444;49.680;18.538;2024-03-23T07:12:02;96362.900250465;;;14.717428683163599
77385;BMP280;66444;49.680;18.538;2024-03-23T07:17:05;96373.45498776666;;;14.89530773353763
77385;BMP280;66444;49.680;18.538;2024-03-23T07:22:08;96359.60600903638;;;14.981703556654974
77385;BMP280;66444;49.680;18.538;2024-03-23T07:27:12;96361.85260345603;;;15.03252384327352
77385;BMP280;66444;49.680;18.538;2024-03-23T07:32:15;96357.87400039763;;;15.184981210669502
77385;BMP280;66444;49.680;18.538;2024-03-23T07:37:19;96350.92171777022;;;15.24596269079484
77385;BMP280;66444;49.680;18.538;2024-03-23T07:42:27;96355.40323400393;;;15.347596628358588
77385;BMP280;66444;49.680;18.538;2024-03-23T07:47:32;96345.32328748533;;;15.459391270484776
77385;BMP280;66444;49.680;18.538;2024-03-23T07:52:35;96345.19549910114;;;15.566101709892973
77385;BMP280;66444;49.680;18.538;2024-03-23T07:57:38;96347.29577416534;;;15.723621952719986
77385;BMP280;66444;49.680;18.538;2024-03-23T08:02:41;96343.45288229993;;;15.733784356946126
77385;BMP280;66444;49.680;18.538;2024-03-23T08:07:44;96341.12850954746;;;15.754109095549211
77385;BMP280;66444;49.680;18.538;2024-03-23T08:12:48;96327.27264519029;;;15.804920534603298
77385;BMP280;66444;49.680;18.538;2024-03-23T08:17:51;96324.23594324286;;;15.784596028830856
77385;BMP280;66444;49.680;18.538;2024-03-23T08:22:54;96315.69051781793;;;15.87097453516908
77385;BMP280;66444;49.680;18.538;2024-03-23T08:27:58;96317.91746261268;;;15.921784635446965
77385;BMP280;66444;49.680;18.538;2024-03-23T08:33:02;96304.81123812175;;;15.977675073454156
77385;BMP280;66444;49.680;18.538;2024-03-23T08:38:05;96297.82433341215;;;16.03864565710537
77385;BMP280;66444;49.680;18.538;2024-03-23T08:43:09;96281.9733840673;;;16.13009996097535
77385;BMP280;66444;49.680;18.538;2024-03-23T08:48:12;96275.27170822906;;;16.24695549365133
77385;BMP280;66444;49.680;18.538;2024-03-23T08:53:15;96269.72887851331;;;16.3536469864659
77385;BMP280;66444;49.680;18.538;2024-03-23T08:58:18;96264.96855532026;;;16.66354581261985
77385;BMP280;66444;49.680;18.538;2024-03-23T09:03:22;96246.93238907937;;;17.064858005195855
77385;BMP280;66444;49.680;18.538;2024-03-23T09:08:25;96225.03812060198;;;17.60327045680024
77385;BMP280;66444;49.680;18.538;2024-03-23T09:13:28;96218.14674538013;;;17.918160632811485
77385;BMP280;66444;49.680;18.538;2024-03-23T09:18:33;96202.67366378868;;;17.958789993450047
77385;BMP280;66444;49.680;18.538;2024-03-23T09:23:37;96187.01762565789;;;18.07051881435327
77385;BMP280;66444;49.680;18.538;2024-03-23T09:28:41;96179.47420277791;;;18.309202766092493
77385;BMP280;66444;49.680;18.538;2024-03-23T09:33:46;96167.66253998283;;;18.41076650521718
77385;BMP280;66444;49.680;18.538;2024-03-23T09:38:49;96156.99058487736;;;18.375219461368395
77385;BMP280;66444;49.680;18.538;2024-03-23T09:43:53;96143.00478071264;;;18.42600086526945
77385;BMP280;66444;49.680;18.538;2024-03-23T09:48:56;96139.9841715491;;;18.405688373558224
77385;BMP280;66444;49.680;18.538;2024-03-23T09:54:00;96112.73392989991;;;18.385375788714736
77385;BMP280;66444;49.680;18.538;2024-03-23T09:59:05;96092.82904521284;;;18.486937781609594
77385;BMP280;66444;49.680;18.538;2024-03-23T10:04:08;96085.95648599387;;;18.730677065066992
77385;BMP280;66444;49.680;18.538;2024-03-23T10:09:16;96074.85776518058;;;18.837308784434573
77385;BMP280;66444;49.680;18.538;2024-03-23T10:14:24;96083.79859280797;;;18.933782890066503
77385;BMP280;66444;49.680;18.538;2024-03-23T10:19:32;96072.37655886753;;;18.89316247012466
77385;BMP280;66444;49.680;18.538;2024-03-23T10:24:37;96075.8145417888;;;19.025177472876386
77385;BMP280;66444;49.680;18.538;2024-03-23T10:29:41;96054.43736143566;;;19.207960980711505
77385;BMP280;66444;49.680;18.538;2024-03-23T10:34:44;96051.19042956014;;;19.25873283855617
77385;BMP280;66444;49.680;18.538;2024-03-23T10:39:48;96035.88583149225;;;19.228269793698566
77385;BMP280;66444;49.680;18.538;2024-03-23T10:44:57;96021.61446946382;;;19.350120715843513
77385;BMP280;66444;49.680;18.538;2024-03-23T10:50:00;96023.1209802255;;;19.360274808015674
77385;BMP280;66444;49.680;18.538;2024-03-23T10:55:08;95997.4198412936;;;19.44150670720264
77385;BMP280;66444;49.680;18.538;2024-03-23T11:00:13;95987.89134821502;;;19.522737116273493
77385;BMP280;66444;49.680;18.538;2024-03-23T11:05:32;95982.87348963313;;;19.634426495665686
77385;BMP280;66444;49.680;18.538;2024-03-23T11:10:36;95967.05667977438;;;19.746113057807086
77385;BMP280;66444;49.680;18.538;2024-03-23T11:15:40;95953.255594467;;;19.725806619692595
77385;BMP280;66444;49.680;18.538;2024-03-23T11:20:43;95932.29397867386;;;19.766419402789325
77385;BMP280;66444;49.680;18.538;2024-03-23T11:25:46;95916.72540545491;;;19.807031813357025
77385;BMP280;66444;49.680;18.538;2024-03-23T11:30:49;95909.93933253057;;;20.07100340165198
77385;BMP280;66444;49.680;18.538;2024-03-23T11:35:53;95903.8193415662;;;20.157298391638324
77385;BMP280;66444;49.680;18.538;2024-03-23T11:40:57;95890.79176488506;;;20.233439632877708
77385;BMP280;66444;49.680;18.538;2024-03-23T11:46:05;95879.70775307156;;;20.30450360975228
77385;BMP280;66444;49.680;18.538;2024-03-23T11:51:09;95867.27563164989;;;20.421249095024542
77385;BMP280;66444;49.680;18.538;2024-03-23T11:56:12;95834.42297355922;;;20.527840109774843
77385;BMP280;66444;49.680;18.538;2024-03-23T12:01:16;95833.52359011768;;;20.55829421393573
77385;BMP280;66444;49.680;18.538;2024-03-23T12:06:19;95826.61655180022;;;20.7308635127265
77385;BMP280;66444;49.680;18.538;2024-03-23T12:11:22;95817.28741118919;;;20.923727119155227
77385;BMP280;66444;49.680;18.538;2024-03-23T12:16:27;95806.43711569357;;;21.106432256195696
77385;BMP280;66444;49.680;18.538;2024-03-23T12:21:30;95802.79781800408;;;21.22823148993775
77385;BMP280;66444;49.680;18.538;2024-03-23T12:26:33;95790.57983371659;;;21.365251620300114
77385;BMP280;66444;49.680;18.538;2024-03-23T12:31:37;95791.70933137705;;;21.537789452029394
77385;BMP280;66444;49.680;18.538;2024-03-23T12:36:41;95805.31880883513;;;21.68494875594042
77385;BMP280;66444;49.680;18.538;2024-03-23T12:41:45;95777.84561651824;;;21.60883248578757
77385;BMP280;66444;49.680;18.538;2024-03-23T12:46:48;95773.93026785458;;;21.289129849523306
77385;BMP280;66444;49.680;18.538;2024-03-23T12:51:53;95753.82904323634;;;21.207931850478055
77385;BMP280;66444;49.680;18.538;2024-03-23T12:56:58;95757.79874563433;;;21.015080630639567
77385;BMP280;66444;49.680;18.538;2024-03-23T13:02:02;95754.87686007717;;;20.62935297540389
77385;BMP280;66444;49.680;18.538;2024-03-23T13:07:05;95761.4974123627;;;20.34511108431034
77385;BMP280;66444;49.680;18.538;2024-03-23T13:12:09;95757.59129157882;;;20.17252674465999
77385;BMP280;66444;49.680;18.538;2024-03-23T13:17:13;95758.16325480661;;;19.939019574923442
77385;BMP280;66444;49.680;18.538;2024-03-23T13:22:17;95761.4091890175;;;19.70550008844584
77385;BMP280;66444;49.680;18.538;2024-03-23T13:27:21;95758.17822905433;;;19.446583651425318
77385;BMP280;66444;49.680;18.538;2024-03-23T13:32:25;95919.65576020535;;;19.207960980711505
77385;BMP280;66444;49.680;18.538;2024-03-23T13:37:29;96017.09663457797;;;15.774433741020038
77385;BMP280;66444;49.680;18.538;2024-03-23T13:42:32;96033.18288647324;;;12.922992785973474
77385;BMP280;66444;49.680;18.538;2024-03-23T13:47:36;96082.67724612952;;;11.595762166846544
77385;BMP280;66444;49.680;18.538;2024-03-23T13:52:40;96050.62696137244;;;10.883674307912589
77385;BMP280;66444;49.680;18.538;2024-03-23T13:57:45;96066.5078886537;;;10.6700257032644
77385;BMP280;66444;49.680;18.538;2024-03-23T14:02:48;96074.46881523576;;;10.634416604228317
77385;BMP280;66444;49.680;18.538;2024-03-23T14:07:52;96093.80658906508;;;10.568284663604572
77385;BMP280;66444;49.680;18.538;2024-03-23T14:12:55;96114.32898546613;;;10.598807219974697
77385;BMP280;66444;49.680;18.538;2024-03-23T14:17:59;96095.737069429;;;10.634416604228317
77385;BMP280;66444;49.680;18.538;2024-03-23T14:23:03;96087.80744259799;;;10.74124304568395
77385;BMP280;66444;49.680;18.538;2024-03-23T14:28:07;96066.56107851412;;;10.812459247233345
77385;BMP280;66444;49.680;18.538;2024-03-23T14:33:11;96073.37681680528;;;10.751416858611629
77385;BMP280;66444;49.680;18.538;2024-03-23T14:38:14;96053.58849992503;;;10.654764695744962
77385;BMP280;66444;49.680;18.538;2024-03-23T14:43:18;96050.13985482199;;;10.578458872344346
77385;BMP280;66444;49.680;18.538;2024-03-23T14:48:24;96036.81950568185;;;10.507238922221585
77385;BMP280;66444;49.680;18.538;2024-03-23T14:53:28;96010.22645282;;;10.4716285193339
77385;BMP280;66444;49.680;18.538;2024-03-23T14:58:32;95989.73818850132;;;10.512326099351048
77385;BMP280;66444;49.680;18.538;2024-03-23T15:03:36;96006.44702325638;;;10.517413270659745
77385;BMP280;66444;49.680;18.538;2024-03-23T15:08:40;96014.08470456433;;;10.639503635838627
77385;BMP280;66444;49.680;18.538;2024-03-23T15:13:43;96011.83419453661;;;10.731069209473208
77385;BMP280;66444;49.680;18.538;2024-03-23T15:18:46;96002.72080381987;;;10.74124304568395
77385;BMP280;66444;49.680;18.538;2024-03-23T15:23:50;96005.00399925624;;;10.756503756344319
77385;BMP280;66444;49.680;18.538;2024-03-23T15:28:54;96020.58251575573;;;10.771764414617792
77385;BMP280;66444;49.680;18.538;2024-03-23T15:33:57;96032.36602840888;;;10.797198728658259
77385;BMP280;66444;49.680;18.538;2024-03-23T15:39:02;96079.49563601844;;;10.86332726413384
77385;BMP280;66444;49.680;18.538;2024-03-23T15:44:06;96100.02328182857;;;10.893847794877365
77385;BMP280;66444;49.680;18.538;2024-03-23T15:49:10;96090.15833148654;;;10.93454150990583
77385;BMP280;66444;49.680;18.538;2024-03-23T15:54:13;96105.75496912841;;;10.985408129822464
77385;BMP280;66444;49.680;18.538;2024-03-23T15:59:17;96094.72817240922;;;10.965061551705002
77385;BMP280;66444;49.680;18.538;2024-03-23T16:04:20;96082.92886142174;;;10.904021258559078
77385;BMP280;66444;49.680;18.538;2024-03-23T16:09:24;96096.97627514767;;;10.873500797664747
77385;BMP280;66444;49.680;18.538;2024-03-23T16:14:29;96121.30070516079;;;10.893847794877365
77385;BMP280;66444;49.680;18.538;2024-03-23T16:19:32;96135.7347320892;;;10.883674307912589
77385;BMP280;66444;49.680;18.538;2024-03-23T16:24:41;96150.9463767542;;;10.914194698957726
77385;BMP280;66444;49.680;18.538;2024-03-23T16:29:45;96178.23423908844;;;10.776851289067418
77385;BMP280;66444;49.680;18.538;2024-03-23T16:34:48;96213.55631364328;;;10.232522713392973
77385;BMP280;66444;49.680;18.538;2024-03-23T16:42:04;96226.53201054927;;;8.940111379371956
77385;BMP280;66444;49.680;18.538;2024-03-23T16:47:05;96245.7899825558;;;8.644941164366902
77385;BMP280;66444;49.680;18.538;2024-03-23T16:52:07;96232.01988192555;;;8.553332633478567
77385;BMP280;66444;49.680;18.538;2024-03-23T16:57:08;96220.30132964204;;;8.563511452265084
77385;BMP280;66444;49.680;18.538;2024-03-23T17:02:09;96238.95988400963;;;8.634762531844899
77385;BMP280;66444;49.680;18.538;2024-03-23T17:07:11;96229.17854495872;;;8.67547692223452
77385;BMP280;66444;49.680;18.538;2024-03-23T17:12:12;96231.06386262398;;;8.6703876438085
77385;BMP280;66444;49.680;18.538;2024-03-23T17:17:14;96258.62985573531;;;8.624583876039832
77385;BMP280;66444;49.680;18.538;2024-03-23T17:22:15;96264.63845266191;;;8.594047768926249
77385;BMP280;66444;49.680;18.538;2024-03-23T17:27:22;96278.18349149638;;;8.543153791408987
77385;BMP280;66444;49.680;18.538;2024-03-23T17:39:08;96306.70252184902;;;8.186879650643096
77385;BMP280;66444;49.680;18.538;2024-03-23T17:44:10;96343.2232298256;;;8.095261690113693
77385;BMP280;66444;49.680;18.538;2024-03-23T17:49:14;96353.95231527934;;;8.166520266840234
77385;BMP280;66444;49.680;18.538;2024-03-23T17:54:16;96366.84417611336;;;8.18178981342353
77385;BMP280;66444;49.680;18.538;2024-03-23T17:59:18;96356.74041678928;;;8.044362008245661
77385;BMP280;66444;49.680;18.538;2024-03-23T18:04:21;96359.24582221784;;;7.973101475741714
77385;BMP280;66444;49.680;18.538;2024-03-23T18:09:22;96372.26271207897;;;7.866208537854254
77385;BMP280;66444;49.680;18.538;2024-03-23T18:14:24;96384.8485787559;;;7.73895169342868
77385;BMP280;66444;49.680;18.538;2024-03-23T18:19:29;96388.0294198815;;;7.63714359854348
77385;BMP280;66444;49.680;18.538;2024-03-23T18:24:30;96403.0577898904;;;7.596419708663598
77385;BMP280;66444;49.680;18.538;2024-03-23T18:29:31;96405.54258923262;;;7.525152004975825
77385;BMP280;66444;49.680;18.538;2024-03-23T18:34:33;96402.47304158378;;;7.504789594374597
77385;BMP280;66444;49.680;18.538;2024-03-23T18:39:34;96397.60644995976;;;7.525152004975825
77385;BMP280;66444;49.680;18.538;2024-03-23T18:44:41;96379.85604137933;;;7.530242593074218
77385;BMP280;66444;49.680;18.538;2024-03-23T18:49:43;96388.29499377855;;;7.586238677985966
77385;BMP280;66444;49.680;18.538;2024-03-23T18:54:44;96395.72837633165;;;7.530242593074218
77385;BMP280;66444;49.680;18.538;2024-03-23T18:59:46;96382.52178387147;;;7.372431655367836
77385;BMP280;66444;49.680;18.538;2024-03-23T19:04:49;96394.1312969613;;;7.168796373484656
77385;BMP280;66444;49.680;18.538;2024-03-23T19:09:52;96404.35759760218;;;7.026246134797111
77385;BMP280;66444;49.680;18.538;2024-03-23T19:14:58;96421.82165317469;;;6.914239174406975
77385;BMP280;66444;49.680;18.538;2024-03-23T19:19:59;96422.16013673657;;;6.89896527971141
77385;BMP280;66444;49.680;18.538;2024-03-23T19:25:04;96441.18104222638;;;6.954969304148108
77385;BMP280;66444;49.680;18.538;2024-03-23T19:30:06;96444.00628621333;;;7.026246134797111
77385;BMP280;66444;49.680;18.538;2024-03-23T19:35:08;96424.82480510436;;;7.056792998686433
77385;BMP280;66444;49.680;18.538;2024-03-23T19:40:11;96415.60928546818;;;6.99569906136021
77385;BMP280;66444;49.680;18.538;2024-03-23T19:45:13;96439.64464021428;;;6.944786806637421
77385;BMP280;66444;49.680;18.538;2024-03-23T19:50:21;96441.85750111137;;;6.924421741766855
77385;BMP280;66444;49.680;18.538;2024-03-23T19:55:22;96420.71499909725;;;6.924421741766855
77385;BMP280;66444;49.680;18.538;2024-03-23T20:00:24;96418.50145094468;;;6.944786806637421
77385;BMP280;66444;49.680;18.538;2024-03-23T20:05:30;96418.6810921389;;;7.016063800267875
77385;BMP280;66444;49.680;18.538;2024-03-23T20:10:32;96414.9305281735;;;7.026246134797111
77385;BMP280;66444;49.680;18.538;2024-03-23T20:15:39;96421.32429026869;;;7.016063800267875
77385;BMP280;66444;49.680;18.538;2024-03-23T20:20:40;96414.9305281735;;;7.026246134797111
77385;BMP280;66444;49.680;18.538;2024-03-23T20:25:49;96411.6797376875;;;6.934604285843671
77385;BMP280;66444;49.680;18.538;2024-03-23T20:30:57;96427.53681405418;;;6.934604285843671
77385;BMP280;66444;49.680;18.538;2024-03-23T20:36:00;96438.9677872194;;;6.975334229320287
77385;BMP280;66444;49.680;18.538;2024-03-23T20:41:05;96426.94976881648;;;7.000790254818275
77385;BMP280;66444;49.680;18.538;2024-03-23T20:46:06;96431.64760642697;;;7.066975240083411
77385;BMP280;66444;49.680;18.538;2024-03-23T20:51:08;96464.47575228421;;;7.056792998686433
77385;BMP280;66444;49.680;18.538;2024-03-23T20:56:09;96458.75919556273;;;7.036428446043283
77385;BMP280;66444;49.680;18.538;2024-03-23T21:01:11;96446.40105433034;;;7.077157458197325
77385;BMP280;66444;49.680;18.538;2024-03-23T21:06:13;96424.1456527949;;;7.087339653028176
77385;BMP280;66444;49.680;18.538;2024-03-23T21:11:16;96417.32285418065;;;7.077157458197325
77385;BMP280;66444;49.680;18.538;2024-03-23T21:16:17;96402.82195400509;;;7.016063800267875
77385;BMP280;66444;49.680;18.538;2024-03-23T21:21:25;96390.10870489675;;;6.914239174406975
77385;BMP280;66444;49.680;18.538;2024-03-23T21:26:32;96401.78656678415;;;6.9040565837640315
77385;BMP280;66444;49.680;18.538;2024-03-23T21:31:34;96382.09157859546;;;6.878600005293265
77385;BMP280;66444;49.680;18.538;2024-03-23T21:36:35;96406.46060868805;;;6.812412220239639
77385;BMP280;66444;49.680;18.538;2024-03-23T21:41:38;96395.2782808129;;;6.720765970787033
77385;BMP280;66444;49.680;18.538;2024-03-23T21:46:40;96380.10317998615;;;6.69021680187434
77385;BMP280;66444;49.680;18.538;2024-03-23T21:51:42;96365.78825206083;;;6.700399881461635
77385;BMP280;66444;49.680;18.538;2024-03-23T21:56:44;96352.91806515958;;;6.685125253349542
77385;BMP280;66444;49.680;18.538;2024-03-23T22:01:46;96347.11512295128;;;6.629117835406214
77385;BMP280;66444;49.680;18.538;2024-03-23T22:06:49;96342.93834431183;;;6.618934592837467
77385;BMP280;66444;49.680;18.538;2024-03-23T22:11:56;96335.9382019446;;;6.537467814097181
77385;BMP280;66444;49.680;18.538;2024-03-23T22:16:59;96390.96934750909;;;6.517100886581465
77385;BMP280;66444;49.680;18.538;2024-03-23T22:22:01;96402.01233523466;;;6.4152648520190265
77385;BMP280;66444;49.680;18.538;2024-03-23T22:27:03;96377.14281350056;;;6.425448560249061
77385;BMP280;66444;49.680;18.538;2024-03-23T22:32:06;96388.80942448632;;;6.4152648520190265
77385;BMP280;66444;49.680;18.538;2024-03-23T22:37:08;96400.4756505149;;;6.405081120505929
77385;BMP280;66444;49.680;18.538;2024-03-23T22:42:10;96384.29646380966;;;6.420356709044427
77385;BMP280;66444;49.680;18.538;2024-03-23T22:47:12;96361.29920012387;;;6.425448560249061
77385;BMP280;66444;49.680;18.538;2024-03-23T22:52:15;96356.01801492105;;;6.425448560249061
77385;BMP280;66444;49.680;18.538;2024-03-23T22:57:22;96377.04691793452;;;6.389805479580536
77385;BMP280;66444;49.680;18.538;2024-03-23T23:59:46;96290.07968910194;;;6.0231743813026695
